Skip to Main Content

Maryland Weather Station Data

Download Historical Weather Data

SEARCH:
Location Air RH Dwp Precip Type Intensity Visibility Wind Speed Direction Pavement Temperature Date/Time
I-270 AT I-370 68 80 62 None - - Calm N 73 - 74 5/29/2016 3:35:01 AM
I-270 AT MD-109 64 96 63 None - - Calm NE 69 - 75 5/29/2016 3:35:01 AM
I-495 AT American Legion Bridge 64 100 64 None - - Calm N 72 - 72 5/29/2016 3:35:01 AM
I-68 AT MD-219 67 84 62 None - - 4 mph W 70 - 70 5/29/2016 3:35:01 AM
I-68 AT Savage Mt 62 100 62 None - - Calm W 64 - 64 5/29/2016 3:35:01 AM
I-68 AT Sideling Hill 67 92 65 None - - Calm NW 73 - 73 5/29/2016 3:35:01 AM
I-695 AT I-83 62 86 58 None - - Calm N 72 - 74 5/29/2016 3:35:01 AM
I-70 AT Fred-Wash Co. 66 90 63 None - - Calm SE 70 - 71 5/29/2016 3:35:01 AM
I-70 AT I-695 62 92 59 None - - Calm S 71 - 74 5/29/2016 3:35:01 AM
I-70 AT I-81 67 88 64 None - - Calm N 75 - 75 5/29/2016 3:35:01 AM
I-70 AT MD-27 66 84 61 None - - Calm S 72 - 72 5/29/2016 3:35:01 AM
I-70 AT MD-32 60 96 59 None - - Calm N 72 - 72 5/29/2016 3:35:01 AM
I-83 AT MD-137 62 91 60 None - - Calm N - 5/29/2016 3:35:01 AM
I-95 AT Patuxent River 64 91 62 None - - Calm S 70 - 72 5/29/2016 3:35:01 AM
I-95 AT Tydings Bridge 69 82 63 None - - Calm SE 73 - 73 5/29/2016 3:35:01 AM
I-95/495 AT I-295 70 71 61 None - - Calm SE 73 - 75 5/29/2016 3:35:01 AM
I-97 AT MD-100 64 87 60 None - - Calm N 70 - 71 5/29/2016 3:35:01 AM
I-97 AT MD-32 61 92 59 None - - 10 mph N 71 - 71 5/29/2016 3:35:01 AM
MD 231 at Patuxent River 63 96 62 None - - Calm SW 68 - 71 5/29/2016 3:35:06 AM
MD-135 AT Salt Dome 68 83 63 None - - 4 mph W 71 - 71 5/29/2016 3:35:01 AM
MD-140 AT MD-97 65 86 60 None - - Calm SE 75 - 75 5/29/2016 3:35:01 AM
MD-213 AT Sassafras River 65 86 61 None - - Calm E 73 - 73 5/29/2016 3:35:01 AM
MD-24 AT Rock St Park 62 94 60 None - - Calm N 69 - 69 5/29/2016 3:35:01 AM
MD-30 AT PA Line 67 79 60 None - - 4 mph SE 73 - 73 5/29/2016 3:35:01 AM
MD-301 AT MD-305 63 87 59 None - - Calm SE 69 - 70 5/29/2016 3:35:01 AM
MD-33 AT Knapps Narrows Drawbridge 68 92 66 None - - Calm SE 74 - 74 5/29/2016 3:35:01 AM
MD-344 at MD-224 63 90 60 None - - Calm N 74 - 74 5/29/2016 3:35:06 AM
MD-4 AT Patuxent River 65 98 64 Rain - - - No Data Available 67 - 72 5/29/2016 3:35:01 AM
MD-404 AT Choptank River 62 89 59 None - - Calm S 69 - 71 5/29/2016 3:35:01 AM
MD-43 AT MD-150 66 92 64 None - - Calm E 74 - 74 5/29/2016 3:35:01 AM
MD-51 AT Oldtown Salt Dome 62 100 62 None - - Calm N 75 - 75 5/29/2016 3:35:01 AM
US-1 AT Baltimore / Harford Co. Line 61 93 59 None - - Calm N 70 - 71 5/29/2016 3:35:01 AM
US-1 AT Conowingo Dam 68 87 64 None - - Calm NE 74 - 74 5/29/2016 3:35:01 AM
US-13 AT US-113 61 98 60 None - - Calm NE 71 - 73 5/29/2016 3:35:01 AM
US-13 AT US-50 59 94 58 None - - Calm E 68 - 69 5/29/2016 3:35:01 AM
US-15 AT MD-140 71 75 63 None - - Calm E 74 - 74 5/29/2016 3:35:01 AM
US-301 AT MD-5 64 92 62 None - - Calm SE 72 - 73 5/29/2016 3:35:01 AM
US-301 AT Potomac 69 84 64 None - - Calm SE 67 - 72 5/29/2016 3:35:01 AM
US-340 AT MD-180 62 97 61 None - - Calm NW 70 - 75 5/29/2016 3:35:01 AM
US-50 AT Choptank 63 100 63 None - - Calm E 67 - 69 5/29/2016 3:35:01 AM
US-50 AT I-95 67 84 62 None - - Calm E 74 - 109 5/29/2016 3:35:01 AM
US-50 AT MD-2 65 97 64 None - - Calm SE 71 - 73 5/29/2016 3:35:01 AM
US-50 AT MD-331 63 91 61 None - - Calm E 68 - 69 5/29/2016 3:35:01 AM
US-50 AT OC Drawbridge 63 97 62 None - - Calm S 68 - 68 5/29/2016 3:35:01 AM
US-50 AT Table Rock Rd 64 87 60 None - - Calm E 66 - 66 5/29/2016 3:35:01 AM
US-50 Kent Narrow Bridge 68 98 68 None - - 4 mph S 69 - 71 5/29/2016 3:35:01 AM
WPL Pier 31 67 91 64 None - - - SE 65 - 65 5/29/2016 3:39:01 AM
Location Air RH Dwp Precip Type Intensity Visibility Wind Speed Direction Pavement Temperature Date/Time